createdAt,value
2023-02-26T00:05:30.750Z,0
2023-02-26T00:11:53.852Z,0
2023-02-26T00:18:13.808Z,0
2023-02-26T00:24:36.848Z,0
2023-02-26T00:30:56.886Z,0
2023-02-26T00:37:19.818Z,0
2023-02-26T00:43:39.755Z,0
2023-02-26T00:50:02.962Z,0
2023-02-26T00:56:22.974Z,0
2023-02-26T01:02:45.869Z,0
2023-02-26T01:09:05.834Z,0
2023-02-26T01:15:28.978Z,0
2023-02-26T01:21:48.733Z,0
2023-02-26T01:28:11.786Z,0
2023-02-26T01:34:31.768Z,0
2023-02-26T01:40:54.751Z,0
2023-02-26T01:47:14.752Z,0
2023-02-26T01:53:37.812Z,0
2023-02-26T01:59:57.775Z,0
2023-02-26T02:06:20.811Z,0
2023-02-26T02:12:40.786Z,0
2023-02-26T02:19:03.758Z,0
2023-02-26T02:25:23.782Z,0
2023-02-26T02:31:47.056Z,0
2023-02-26T02:38:06.898Z,0
2023-02-26T02:44:29.894Z,0
2023-02-26T02:50:49.964Z,0
2023-02-26T02:57:12.830Z,0
2023-02-26T03:03:32.778Z,0
2023-02-26T03:09:55.780Z,0
2023-02-26T03:16:15.824Z,0
2023-02-26T03:22:38.957Z,0
2023-02-26T03:28:58.817Z,0
2023-02-26T03:35:21.756Z,0
2023-02-26T03:41:41.886Z,0
2023-02-26T03:48:04.873Z,0
2023-02-26T03:54:24.809Z,0
2023-02-26T04:00:47.904Z,0
2023-02-26T04:25:05.202Z,0
2023-02-26T04:31:24.816Z,0
2023-02-26T04:37:47.842Z,0
2023-02-26T04:44:07.873Z,0
2023-02-26T04:50:30.895Z,0
2023-02-26T04:56:50.788Z,0
2023-02-26T05:03:13.869Z,0
2023-02-26T05:09:33.819Z,0
2023-02-26T05:15:56.903Z,0
2023-02-26T05:22:16.862Z,0
2023-02-26T05:28:39.811Z,0
2023-02-26T05:34:59.992Z,0
2023-02-26T05:41:22.800Z,0
2023-02-26T05:47:42.855Z,0
2023-02-26T05:54:05.894Z,0
2023-02-26T06:00:25.811Z,0
2023-02-26T06:06:48.850Z,0
2023-02-26T06:13:08.873Z,0
2023-02-26T06:19:31.857Z,0
2023-02-26T06:25:51.961Z,0
2023-02-26T06:32:15.079Z,0
2023-02-26T06:38:34.895Z,0
2023-02-26T06:44:58.785Z,0
2023-02-26T06:51:18.852Z,5.62
2023-02-26T06:57:41.843Z,5.62
2023-02-26T07:04:01.782Z,5.62
2023-02-26T07:10:24.818Z,11.25
2023-02-26T07:16:44.952Z,11.25
2023-02-26T07:23:07.771Z,11.25
2023-02-26T07:29:27.797Z,16.88
2023-02-26T07:35:50.841Z,16.88
2023-02-26T07:42:10.929Z,16.88
2023-02-26T07:48:33.957Z,11.25
2023-02-26T07:54:53.802Z,16.88
2023-02-26T08:01:16.943Z,11.25
2023-02-26T08:07:36.765Z,11.25
2023-02-26T08:13:59.839Z,16.88
2023-02-26T08:20:19.908Z,16.88
2023-02-26T08:26:42.760Z,22.5
2023-02-26T08:33:02.832Z,16.88
2023-02-26T08:39:25.847Z,28.12
2023-02-26T08:45:45.765Z,22.5
2023-02-26T08:52:09.329Z,22.5
2023-02-26T08:58:30.274Z,16.88
2023-02-26T09:04:51.794Z,22.5
2023-02-26T09:20:59.754Z,22.5
2023-02-26T09:27:22.347Z,22.5
2023-02-26T09:33:44.754Z,45
2023-02-26T09:40:04.780Z,67.5
2023-02-26T09:46:28.033Z,56.25
2023-02-26T09:52:47.810Z,33.75
2023-02-26T09:59:10.865Z,67.5
2023-02-26T10:05:30.781Z,39.38
2023-02-26T10:11:53.784Z,45
2023-02-26T10:18:13.780Z,56.25
2023-02-26T10:24:36.797Z,45
2023-02-26T10:30:56.915Z,33.75
2023-02-26T10:37:19.807Z,28.12
2023-02-26T10:43:39.819Z,56.25
2023-02-26T10:50:02.769Z,123.75
2023-02-26T10:56:22.812Z,56.25
2023-02-26T11:02:45.824Z,56.25
2023-02-26T11:09:05.768Z,50.62
2023-02-26T11:15:28.885Z,45
2023-02-26T11:21:48.832Z,45
2023-02-26T11:28:11.811Z,33.75
2023-02-26T11:34:31.842Z,45
2023-02-26T11:40:54.822Z,118.12
2023-02-26T11:47:14.823Z,112.5
2023-02-26T11:53:37.792Z,146.25
2023-02-26T11:59:57.816Z,146.25
2023-02-26T12:06:20.814Z,50.62
2023-02-26T12:12:40.762Z,50.62
2023-02-26T12:19:03.872Z,45
2023-02-26T12:25:23.764Z,56.25
2023-02-26T12:31:46.952Z,129.38
2023-02-26T12:38:06.882Z,33.75
2023-02-26T12:44:29.771Z,56.25
2023-02-26T12:50:49.943Z,73.12
2023-02-26T12:57:12.834Z,45
2023-02-26T13:03:32.937Z,61.88
2023-02-26T13:09:55.800Z,61.88
2023-02-26T13:16:15.814Z,56.25
2023-02-26T13:22:38.822Z,135
2023-02-26T13:28:59.077Z,73.12
2023-02-26T13:35:21.829Z,50.62
2023-02-26T13:41:41.809Z,45
2023-02-26T13:48:04.884Z,50.62
2023-02-26T13:54:24.809Z,67.5
2023-02-26T14:00:47.826Z,101.25
2023-02-26T14:07:07.790Z,61.88
2023-02-26T14:13:30.794Z,45
2023-02-26T14:19:50.788Z,33.75
2023-02-26T14:37:07.284Z,95.62
2023-02-26T14:43:26.729Z,56.25
2023-02-26T14:49:49.830Z,50.62
2023-02-26T14:56:09.794Z,39.38
2023-02-26T15:02:32.810Z,28.12
2023-02-26T15:08:52.822Z,84.38
2023-02-26T15:15:15.796Z,90
2023-02-26T15:21:35.750Z,50.62
2023-02-26T15:27:58.776Z,28.12
2023-02-26T15:34:18.786Z,50.62
2023-02-26T15:40:41.856Z,28.12
2023-02-26T15:47:02.151Z,22.5
2023-02-26T15:53:24.882Z,22.5
2023-02-26T15:59:44.773Z,16.88
2023-02-26T16:06:07.825Z,16.88
2023-02-26T16:12:27.816Z,16.88
2023-02-26T16:18:50.791Z,11.25
2023-02-26T16:25:10.817Z,11.25
2023-02-26T16:31:33.927Z,11.25
2023-02-26T16:37:53.780Z,5.62
2023-02-26T16:44:16.753Z,5.62
2023-02-26T16:50:36.810Z,5.62
2023-02-26T16:56:59.894Z,0
2023-02-26T17:03:19.875Z,0
2023-02-26T17:09:42.787Z,0
2023-02-26T17:16:02.788Z,0
2023-02-26T17:22:25.762Z,0
2023-02-26T17:28:45.887Z,0
2023-02-26T17:35:08.758Z,0
2023-02-26T17:41:28.922Z,0
2023-02-26T17:47:51.963Z,0
2023-02-26T17:54:11.974Z,0
2023-02-26T18:00:34.963Z,0
2023-02-26T18:06:54.855Z,0
2023-02-26T18:13:17.955Z,0
2023-02-26T18:19:37.761Z,0
2023-02-26T18:26:00.910Z,0
2023-02-26T18:32:21.032Z,0
2023-02-26T18:38:43.786Z,0
2023-02-26T18:45:03.909Z,0
2023-02-26T18:51:27.499Z,0
2023-02-26T18:57:46.813Z,0
2023-02-26T19:04:09.845Z,0
2023-02-26T19:10:29.753Z,0
2023-02-26T19:16:52.795Z,0
2023-02-26T19:33:00.642Z,0
2023-02-26T19:39:20.745Z,0
2023-02-26T19:45:43.914Z,0
2023-02-26T19:52:03.956Z,0
2023-02-26T19:58:26.742Z,0
2023-02-26T20:04:46.981Z,0
2023-02-26T20:11:09.901Z,0
2023-02-26T20:17:29.769Z,0
2023-02-26T20:23:52.803Z,0
2023-02-26T20:30:12.763Z,0
2023-02-26T20:36:35.741Z,0
2023-02-26T20:42:55.748Z,0
2023-02-26T20:49:18.783Z,0
2023-02-26T20:55:38.843Z,0
2023-02-26T21:02:01.772Z,0
2023-02-26T21:08:21.793Z,0
2023-02-26T21:14:44.768Z,0
2023-02-26T21:21:04.785Z,0
2023-02-26T21:27:27.846Z,0
2023-02-26T21:33:47.788Z,0
2023-02-26T21:40:10.790Z,0
2023-02-26T21:46:30.857Z,0
2023-02-26T21:52:53.882Z,0
2023-02-26T21:59:13.807Z,0
2023-02-26T22:05:36.854Z,0
2023-02-26T22:11:56.862Z,0
2023-02-26T22:18:19.803Z,0
2023-02-26T22:24:39.796Z,0
2023-02-26T22:31:02.858Z,0
2023-02-26T22:37:22.853Z,0
2023-02-26T22:43:45.898Z,0
2023-02-26T22:50:05.890Z,0
2023-02-26T22:56:28.769Z,0
2023-02-26T23:20:42.795Z,0
2023-02-26T23:27:02.751Z,0
2023-02-26T23:33:25.821Z,0
2023-02-26T23:39:45.824Z,0
2023-02-26T23:46:08.890Z,0
2023-02-26T23:52:28.837Z,0
2023-02-26T23:58:51.833Z,0
